AAL2522 KFZY-CYYT
Flight info
| Callsign | AAL2522 |
|---|---|
| Flight time | 1h 23m |
| Altitude | 15000 |
| Route | WAYGO Q937 KRAZZ Q29 EBKID Q822 TIGOR TIGOR5 |
| Aircraft | DC6/M-SDE1FGHIRWXY/S |
Departure
| Time | 2026-05-08 04:53 |
|---|---|
| Airport | Oswego County Airport (KFZY) |
Arrival
| Time | 2026-05-08 06:16 |
|---|---|
| Airport | St. John's International Airport (CYYT) |
| Time | Latitude | Longitude | Altitude | Speed | Heading |
|---|---|---|---|---|---|
| 2026-05-08 04:34 | 43.34969 | -76.39203 | 469 ft | 0 kts | 49° |
| 2026-05-08 04:42 | 43.34970 | -76.39202 | 469 ft | 1 kts | 49° |
| 2026-05-08 04:43 | 43.35048 | -76.39163 | 468 ft | 14 kts | 3° |
| 2026-05-08 04:43 | 43.35077 | -76.39016 | 469 ft | 15 kts | 91° |
| 2026-05-08 04:43 | 43.34939 | -76.38778 | 471 ft | 20 kts | 136° |
| 2026-05-08 04:43 | 43.34686 | -76.38453 | 478 ft | 30 kts | 138° |
| 2026-05-08 04:44 | 43.34541 | -76.38262 | 477 ft | 8 kts | 108° |
| 2026-05-08 04:44 | 43.34552 | -76.38218 | 480 ft | 0 kts | 43° |
| 2026-05-08 04:47 | 43.34556 | -76.38212 | 478 ft | 3 kts | 43° |
| 2026-05-08 04:47 | 43.34581 | -76.38179 | 481 ft | 6 kts | 45° |
| 2026-05-08 04:47 | 43.34618 | -76.38163 | 480 ft | 6 kts | 324° |
| 2026-05-08 04:48 | 43.34625 | -76.38172 | 480 ft | 0 kts | 317° |
| 2026-05-08 04:51 | 43.34645 | -76.38196 | 481 ft | 21 kts | 317° |
| 2026-05-08 04:51 | 43.34893 | -76.38517 | 475 ft | 75 kts | 317° |
| 2026-05-08 04:52 | 43.35391 | -76.39151 | 475 ft | 117 kts | 315° |
| 2026-05-08 04:52 | 43.36022 | -76.39951 | 654 ft | 128 kts | 315° |
| 2026-05-08 04:52 | 43.36706 | -76.40821 | 889 ft | 143 kts | 315° |
| 2026-05-08 04:52 | 43.37479 | -76.41824 | 1056 ft | 162 kts | 315° |
| 2026-05-08 04:53 | 43.38308 | -76.42924 | 1390 ft | 166 kts | 314° |
| 2026-05-08 04:53 | 43.39126 | -76.44014 | 1847 ft | 161 kts | 314° |
| 2026-05-08 04:53 | 43.39927 | -76.45061 | 2138 ft | 162 kts | 314° |
| 2026-05-08 04:53 | 43.40748 | -76.46123 | 2418 ft | 162 kts | 314° |
| 2026-05-08 04:54 | 43.41572 | -76.47188 | 2697 ft | 162 kts | 313° |
| 2026-05-08 04:54 | 43.42581 | -76.47888 | 2845 ft | 175 kts | 351° |
| 2026-05-08 04:54 | 43.43741 | -76.47281 | 3010 ft | 191 kts | 39° |
| 2026-05-08 04:54 | 43.44290 | -76.45607 | 3208 ft | 200 kts | 85° |
| 2026-05-08 04:55 | 43.43877 | -76.43817 | 3414 ft | 197 kts | 128° |
| 2026-05-08 04:55 | 43.43217 | -76.42190 | 3685 ft | 195 kts | 113° |
| 2026-05-08 04:55 | 43.42707 | -76.40464 | 3945 ft | 195 kts | 114° |
| 2026-05-08 04:55 | 43.42180 | -76.38741 | 4192 ft | 196 kts | 114° |
| 2026-05-08 04:56 | 43.41653 | -76.37013 | 4437 ft | 196 kts | 114° |
| 2026-05-08 04:56 | 43.41125 | -76.35278 | 4700 ft | 197 kts | 114° |
| 2026-05-08 04:56 | 43.40597 | -76.33542 | 4946 ft | 197 kts | 115° |
| 2026-05-08 04:56 | 43.40076 | -76.31791 | 5192 ft | 198 kts | 114° |
| 2026-05-08 04:57 | 43.39557 | -76.30030 | 5443 ft | 199 kts | 114° |
| 2026-05-08 04:57 | 43.39044 | -76.28259 | 5692 ft | 200 kts | 114° |
| 2026-05-08 04:57 | 43.38504 | -76.26499 | 5915 ft | 200 kts | 121° |
| 2026-05-08 04:57 | 43.37841 | -76.24823 | 6165 ft | 201 kts | 118° |
| 2026-05-08 04:58 | 43.37447 | -76.22991 | 6385 ft | 205 kts | 101° |
| 2026-05-08 04:58 | 43.37505 | -76.21026 | 6585 ft | 207 kts | 78° |
| 2026-05-08 04:58 | 43.37842 | -76.19107 | 6829 ft | 207 kts | 76° |
| 2026-05-08 04:58 | 43.38133 | -76.17170 | 7052 ft | 207 kts | 79° |
| 2026-05-08 04:59 | 43.38400 | -76.15218 | 7278 ft | 208 kts | 79° |
| 2026-05-08 04:59 | 43.38675 | -76.13261 | 7493 ft | 208 kts | 79° |
| 2026-05-08 04:59 | 43.38947 | -76.11307 | 7706 ft | 208 kts | 79° |
| 2026-05-08 04:59 | 43.39220 | -76.09349 | 7917 ft | 208 kts | 79° |
| 2026-05-08 05:00 | 43.39492 | -76.07392 | 8122 ft | 209 kts | 79° |
| 2026-05-08 05:00 | 43.40618 | -75.99280 | 8947 ft | 211 kts | 80° |
| 2026-05-08 05:00 | 43.41653 | -75.83128 | 10519 ft | 217 kts | 92° |
| 2026-05-08 05:00 | 43.41838 | -75.66192 | 12119 ft | 226 kts | 93° |
| 2026-05-08 05:01 | 43.41870 | -75.55566 | 13116 ft | 232 kts | 95° |
| 2026-05-08 05:01 | 43.41872 | -75.53347 | 13327 ft | 233 kts | 95° |
| 2026-05-08 05:01 | 43.41881 | -75.51147 | 13534 ft | 231 kts | 95° |
| 2026-05-08 05:01 | 43.41890 | -75.48972 | 13588 ft | 227 kts | 96° |
| 2026-05-08 05:02 | 43.41896 | -75.46779 | 13604 ft | 232 kts | 96° |
| 2026-05-08 05:02 | 43.41898 | -75.44510 | 13610 ft | 243 kts | 96° |
| 2026-05-08 05:02 | 43.41905 | -75.42144 | 13715 ft | 248 kts | 95° |
| 2026-05-08 05:02 | 43.41918 | -75.39804 | 14011 ft | 242 kts | 96° |
| 2026-05-08 05:03 | 43.41923 | -75.37501 | 14225 ft | 240 kts | 96° |
| 2026-05-08 05:03 | 43.41926 | -75.35211 | 14434 ft | 239 kts | 96° |
| 2026-05-08 05:03 | 43.41931 | -75.32936 | 14597 ft | 238 kts | 96° |
| 2026-05-08 05:03 | 43.41935 | -75.30662 | 14789 ft | 237 kts | 96° |
| 2026-05-08 05:04 | 43.41939 | -75.28393 | 14942 ft | 237 kts | 97° |
| 2026-05-08 05:04 | 43.41940 | -75.26115 | 15010 ft | 243 kts | 96° |
| 2026-05-08 05:04 | 43.41941 | -75.23752 | 15017 ft | 251 kts | 96° |
| 2026-05-08 05:04 | 43.41943 | -75.21307 | 15021 ft | 260 kts | 96° |
| 2026-05-08 05:05 | 43.41946 | -75.18779 | 15021 ft | 269 kts | 96° |
| 2026-05-08 05:05 | 43.41946 | -75.00009 | 15002 ft | 303 kts | 95° |
| 2026-05-08 05:05 | 43.41912 | -74.80377 | 15000 ft | 313 kts | 95° |
| 2026-05-08 05:05 | 43.41902 | -74.77384 | 15003 ft | 314 kts | 95° |
| 2026-05-08 05:06 | 43.41895 | -74.74387 | 14998 ft | 312 kts | 95° |
| 2026-05-08 05:06 | 43.41886 | -74.71419 | 14995 ft | 309 kts | 96° |
| 2026-05-08 05:06 | 43.41875 | -74.68471 | 14979 ft | 306 kts | 96° |
| 2026-05-08 05:06 | 43.41850 | -74.62579 | 15010 ft | 303 kts | 96° |
| 2026-05-08 05:07 | 43.41733 | -74.39538 | 14989 ft | 300 kts | 96° |
| 2026-05-08 05:07 | 43.42261 | -74.28250 | 14920 ft | 305 kts | 60° |
| 2026-05-08 05:07 | 43.43652 | -74.26170 | 14980 ft | 289 kts | 26° |
| 2026-05-08 05:07 | 43.45393 | -74.24933 | 15017 ft | 280 kts | 15° |
| 2026-05-08 05:08 | 43.47120 | -74.23612 | 15009 ft | 289 kts | 27° |
| 2026-05-08 05:08 | 43.48655 | -74.21783 | 15015 ft | 294 kts | 39° |
| 2026-05-08 05:08 | 43.50103 | -74.19790 | 15002 ft | 294 kts | 39° |
| 2026-05-08 05:08 | 43.59342 | -74.08587 | 15020 ft | 295 kts | 37° |
| 2026-05-08 05:09 | 43.68574 | -73.97339 | 14982 ft | 295 kts | 37° |
| 2026-05-08 05:09 | 43.69905 | -73.95190 | 14970 ft | 296 kts | 57° |
| 2026-05-08 05:09 | 43.71001 | -73.92796 | 14986 ft | 294 kts | 52° |
| 2026-05-08 05:09 | 43.72238 | -73.90546 | 14990 ft | 294 kts | 49° |
| 2026-05-08 05:10 | 43.73475 | -73.88293 | 14996 ft | 294 kts | 51° |
| 2026-05-08 05:10 | 43.77097 | -73.81257 | 14985 ft | 295 kts | 52° |
| 2026-05-08 05:10 | 43.78687 | -73.78210 | 14989 ft | 294 kts | 52° |
| 2026-05-08 05:11 | 43.81074 | -73.73594 | 14996 ft | 295 kts | 52° |
| 2026-05-08 05:11 | 43.83469 | -73.68975 | 14985 ft | 296 kts | 52° |
| 2026-05-08 05:11 | 43.85859 | -73.64349 | 14992 ft | 295 kts | 52° |
| 2026-05-08 05:11 | 43.89014 | -73.58234 | 14991 ft | 294 kts | 52° |
| 2026-05-08 05:12 | 43.90620 | -73.55114 | 14992 ft | 294 kts | 52° |
| 2026-05-08 05:12 | 43.92997 | -73.50497 | 14989 ft | 294 kts | 52° |
| 2026-05-08 05:12 | 43.95366 | -73.45887 | 14985 ft | 293 kts | 52° |
| 2026-05-08 05:12 | 43.97723 | -73.41288 | 14983 ft | 292 kts | 53° |
| 2026-05-08 05:13 | 44.00045 | -73.36754 | 14989 ft | 292 kts | 53° |
| 2026-05-08 05:13 | 44.02402 | -73.32144 | 14979 ft | 292 kts | 53° |
| 2026-05-08 05:13 | 44.04752 | -73.27540 | 14981 ft | 292 kts | 53° |
| 2026-05-08 05:13 | 44.07098 | -73.22938 | 14972 ft | 291 kts | 53° |
| 2026-05-08 05:14 | 44.09436 | -73.18344 | 14979 ft | 291 kts | 53° |
| 2026-05-08 05:14 | 44.11773 | -73.13743 | 14973 ft | 291 kts | 53° |
| 2026-05-08 05:14 | 44.14106 | -73.09143 | 14975 ft | 291 kts | 53° |
| 2026-05-08 05:14 | 44.16438 | -73.04539 | 14975 ft | 290 kts | 53° |
| 2026-05-08 05:15 | 44.18764 | -72.99938 | 14980 ft | 291 kts | 53° |
| 2026-05-08 05:15 | 44.21092 | -72.95328 | 14984 ft | 290 kts | 53° |
| 2026-05-08 05:15 | 44.23417 | -72.90713 | 14989 ft | 290 kts | 53° |
| 2026-05-08 05:15 | 44.25728 | -72.86123 | 14987 ft | 289 kts | 53° |
| 2026-05-08 05:16 | 44.28036 | -72.81530 | 14994 ft | 289 kts | 53° |
| 2026-05-08 05:16 | 44.30334 | -72.76948 | 14981 ft | 288 kts | 53° |
| 2026-05-08 05:16 | 44.31855 | -72.73912 | 14983 ft | 288 kts | 53° |
| 2026-05-08 05:17 | 44.32848 | -72.71926 | 14995 ft | 289 kts | 53° |
| 2026-05-08 05:17 | 44.35117 | -72.67390 | 14988 ft | 289 kts | 53° |
| 2026-05-08 05:17 | 44.37415 | -72.62789 | 14969 ft | 288 kts | 54° |
| 2026-05-08 05:18 | 44.39705 | -72.58192 | 14966 ft | 288 kts | 53° |
| 2026-05-08 05:18 | 44.41984 | -72.53610 | 14969 ft | 287 kts | 54° |
| 2026-05-08 05:18 | 44.44259 | -72.49034 | 14961 ft | 286 kts | 54° |
| 2026-05-08 05:18 | 44.46534 | -72.44447 | 14962 ft | 287 kts | 54° |
| 2026-05-08 05:19 | 44.48807 | -72.39856 | 14967 ft | 286 kts | 54° |
| 2026-05-08 05:19 | 44.51070 | -72.35280 | 14966 ft | 286 kts | 54° |
| 2026-05-08 05:19 | 44.53335 | -72.30692 | 14964 ft | 286 kts | 54° |
| 2026-05-08 05:19 | 44.55599 | -72.26100 | 14964 ft | 286 kts | 54° |
| 2026-05-08 05:20 | 44.57861 | -72.21503 | 14967 ft | 287 kts | 54° |
| 2026-05-08 05:20 | 44.60130 | -72.16883 | 14967 ft | 287 kts | 54° |
| 2026-05-08 05:20 | 44.62389 | -72.12280 | 14964 ft | 285 kts | 54° |
| 2026-05-08 05:20 | 44.64641 | -72.07682 | 14959 ft | 286 kts | 54° |
| 2026-05-08 05:21 | 44.66892 | -72.03080 | 14963 ft | 286 kts | 54° |
| 2026-05-08 05:21 | 44.69139 | -71.98477 | 14955 ft | 286 kts | 54° |
| 2026-05-08 05:21 | 44.71388 | -71.93864 | 14953 ft | 286 kts | 54° |
| 2026-05-08 05:21 | 44.73630 | -71.89256 | 14950 ft | 286 kts | 54° |
| 2026-05-08 05:22 | 44.75874 | -71.84637 | 14958 ft | 286 kts | 54° |
| 2026-05-08 05:22 | 44.78116 | -71.80015 | 14959 ft | 286 kts | 54° |
| 2026-05-08 05:22 | 44.80356 | -71.75389 | 14959 ft | 286 kts | 54° |
| 2026-05-08 05:22 | 44.82297 | -71.70563 | 14922 ft | 284 kts | 82° |
| 2026-05-08 05:23 | 44.82433 | -71.65094 | 14965 ft | 281 kts | 90° |
| 2026-05-08 05:23 | 44.82670 | -71.59673 | 14961 ft | 281 kts | 90° |
| 2026-05-08 05:23 | 44.82858 | -71.54174 | 14964 ft | 282 kts | 90° |
| 2026-05-08 05:23 | 44.83056 | -71.48647 | 14951 ft | 283 kts | 90° |
| 2026-05-08 05:24 | 44.83251 | -71.43129 | 14960 ft | 282 kts | 90° |
| 2026-05-08 05:24 | 44.83444 | -71.37603 | 14956 ft | 283 kts | 90° |
| 2026-05-08 05:24 | 44.83634 | -71.32054 | 14954 ft | 284 kts | 90° |
| 2026-05-08 05:24 | 44.83822 | -71.26522 | 14942 ft | 282 kts | 91° |
| 2026-05-08 05:25 | 44.84007 | -71.20985 | 14945 ft | 283 kts | 91° |
| 2026-05-08 05:25 | 44.84188 | -71.15438 | 14947 ft | 283 kts | 91° |
| 2026-05-08 05:25 | 44.84367 | -71.09904 | 14946 ft | 283 kts | 91° |
| 2026-05-08 05:25 | 44.84544 | -71.04358 | 14940 ft | 283 kts | 91° |
| 2026-05-08 05:26 | 44.84719 | -70.98811 | 14948 ft | 283 kts | 91° |
| 2026-05-08 05:26 | 44.84890 | -70.93272 | 14943 ft | 283 kts | 91° |
| 2026-05-08 05:26 | 44.85059 | -70.87722 | 14944 ft | 283 kts | 91° |
| 2026-05-08 05:26 | 44.85225 | -70.82177 | 14940 ft | 283 kts | 92° |
| 2026-05-08 05:27 | 44.85389 | -70.76637 | 14939 ft | 283 kts | 92° |
| 2026-05-08 05:27 | 44.85549 | -70.71101 | 14937 ft | 283 kts | 92° |
| 2026-05-08 05:27 | 44.85708 | -70.65556 | 14931 ft | 283 kts | 92° |
| 2026-05-08 05:27 | 44.85858 | -70.60017 | 15041 ft | 285 kts | 89° |
| 2026-05-08 05:28 | 44.86017 | -70.54388 | 14929 ft | 287 kts | 89° |
| 2026-05-08 05:28 | 44.86168 | -70.48807 | 14917 ft | 284 kts | 89° |
| 2026-05-08 05:28 | 44.86312 | -70.43269 | 14908 ft | 282 kts | 89° |
| 2026-05-08 05:28 | 44.86459 | -70.37757 | 14908 ft | 281 kts | 89° |
| 2026-05-08 05:29 | 44.86598 | -70.32267 | 14905 ft | 280 kts | 89° |
| 2026-05-08 05:29 | 44.86737 | -70.26776 | 14903 ft | 280 kts | 89° |
| 2026-05-08 05:29 | 44.86870 | -70.21307 | 14903 ft | 279 kts | 89° |
| 2026-05-08 05:29 | 44.87004 | -70.15837 | 14897 ft | 279 kts | 89° |
| 2026-05-08 05:30 | 44.87131 | -70.10452 | 14901 ft | 279 kts | 89° |
| 2026-05-08 05:30 | 44.87257 | -70.04985 | 14895 ft | 279 kts | 89° |
| 2026-05-08 05:30 | 44.87382 | -69.99527 | 14891 ft | 279 kts | 89° |
| 2026-05-08 05:30 | 44.87502 | -69.94062 | 14891 ft | 279 kts | 89° |
| 2026-05-08 05:31 | 44.87621 | -69.88598 | 14889 ft | 279 kts | 90° |
| 2026-05-08 05:31 | 44.87739 | -69.83115 | 14887 ft | 279 kts | 89° |
| 2026-05-08 05:31 | 44.87851 | -69.77643 | 14906 ft | 279 kts | 90° |
| 2026-05-08 05:31 | 44.87962 | -69.72227 | 14995 ft | 276 kts | 90° |
| 2026-05-08 05:32 | 44.88031 | -69.68793 | 14989 ft | 277 kts | 90° |
| 2026-05-08 05:32 | 44.88084 | -69.66073 | 14990 ft | 279 kts | 90° |
| 2026-05-08 05:32 | 44.88138 | -69.63374 | 15215 ft | 271 kts | 90° |
| 2026-05-08 05:32 | 44.88255 | -69.58512 | 15648 ft | 259 kts | 90° |
| 2026-05-08 05:33 | 44.88921 | -69.40522 | 16674 ft | 247 kts | 90° |
| 2026-05-08 05:33 | 44.89931 | -69.21181 | 17434 ft | 248 kts | 90° |
| 2026-05-08 05:33 | 44.91148 | -69.01978 | 18058 ft | 252 kts | 90° |
| 2026-05-08 05:33 | 44.92643 | -68.82024 | 18666 ft | 259 kts | 90° |
| 2026-05-08 05:34 | 44.93153 | -68.75956 | 18836 ft | 260 kts | 90° |
| 2026-05-08 05:34 | 44.93381 | -68.73410 | 18858 ft | 264 kts | 90° |
| 2026-05-08 05:34 | 44.93608 | -68.70828 | 18862 ft | 267 kts | 90° |
| 2026-05-08 05:34 | 44.94614 | -68.59020 | 18881 ft | 282 kts | 90° |
| 2026-05-08 05:35 | 44.96453 | -68.36302 | 18841 ft | 298 kts | 90° |
| 2026-05-08 05:35 | 44.98331 | -68.12749 | 18842 ft | 303 kts | 90° |
| 2026-05-08 05:35 | 44.98771 | -68.07267 | 18823 ft | 305 kts | 90° |
| 2026-05-08 05:35 | 44.98880 | -68.04309 | 18789 ft | 295 kts | 106° |
| 2026-05-08 05:36 | 44.98185 | -68.01772 | 18831 ft | 266 kts | 135° |
| 2026-05-08 05:36 | 44.96688 | -67.97257 | 18835 ft | 276 kts | 124° |
| 2026-05-08 05:36 | 44.92283 | -67.82376 | 18826 ft | 281 kts | 124° |
| 2026-05-08 05:36 | 44.90567 | -67.77111 | 18811 ft | 284 kts | 122° |
| 2026-05-08 05:37 | 44.90022 | -67.72613 | 18827 ft | 301 kts | 97° |
| 2026-05-08 05:37 | 44.90135 | -67.69645 | 18827 ft | 304 kts | 92° |
| 2026-05-08 05:37 | 44.90237 | -67.59171 | 18825 ft | 303 kts | 98° |
| 2026-05-08 05:37 | 44.90265 | -67.47252 | 18822 ft | 304 kts | 98° |
| 2026-05-08 05:38 | 44.90270 | -67.35315 | 18822 ft | 305 kts | 98° |
| 2026-05-08 05:38 | 44.90256 | -67.23294 | 18818 ft | 307 kts | 98° |
| 2026-05-08 05:38 | 44.90252 | -66.93226 | 18805 ft | 311 kts | 99° |
| 2026-05-08 05:38 | 44.90224 | -66.81607 | 18808 ft | 310 kts | 98° |
| 2026-05-08 05:39 | 44.90116 | -66.57286 | 18793 ft | 310 kts | 99° |
| 2026-05-08 05:39 | 44.90076 | -66.50396 | 18805 ft | 311 kts | 99° |
| 2026-05-08 05:39 | 44.90057 | -66.47347 | 18845 ft | 310 kts | 99° |
| 2026-05-08 05:39 | 44.90046 | -66.44382 | 19155 ft | 296 kts | 100° |
| 2026-05-08 05:40 | 44.90030 | -66.41529 | 19445 ft | 285 kts | 101° |
| 2026-05-08 05:40 | 44.90009 | -66.38786 | 19687 ft | 275 kts | 102° |
| 2026-05-08 05:40 | 44.89931 | -66.28977 | 20272 ft | 258 kts | 104° |
| 2026-05-08 05:40 | 44.89849 | -66.18980 | 20625 ft | 252 kts | 105° |
| 2026-05-08 05:41 | 44.89804 | -66.14145 | 20745 ft | 251 kts | 105° |
| 2026-05-08 05:41 | 44.89779 | -66.11671 | 20738 ft | 253 kts | 105° |
| 2026-05-08 05:41 | 44.89755 | -66.09173 | 20744 ft | 256 kts | 105° |
| 2026-05-08 05:41 | 44.89670 | -66.01131 | 20746 ft | 267 kts | 104° |
| 2026-05-08 05:42 | 44.89428 | -65.79175 | 20720 ft | 292 kts | 103° |
| 2026-05-08 05:42 | 44.89122 | -65.55758 | 20735 ft | 303 kts | 102° |
| 2026-05-08 05:42 | 44.89214 | -65.49573 | 20685 ft | 319 kts | 82° |
| 2026-05-08 05:42 | 44.90214 | -65.46764 | 20737 ft | 321 kts | 58° |
| 2026-05-08 05:43 | 44.91303 | -65.44018 | 20729 ft | 320 kts | 69° |
| 2026-05-08 05:43 | 44.92174 | -65.41134 | 20729 ft | 320 kts | 72° |
| 2026-05-08 05:43 | 44.96446 | -65.28907 | 20732 ft | 325 kts | 67° |
| 2026-05-08 05:43 | 45.04353 | -65.05740 | 20737 ft | 329 kts | 69° |
| 2026-05-08 05:44 | 45.12318 | -64.82291 | 20727 ft | 331 kts | 68° |
| 2026-05-08 05:44 | 45.20269 | -64.58791 | 20710 ft | 331 kts | 68° |
| 2026-05-08 05:44 | 45.28069 | -64.35481 | 20684 ft | 331 kts | 69° |
| 2026-05-08 05:44 | 45.35908 | -64.11816 | 20653 ft | 332 kts | 69° |
| 2026-05-08 05:45 | 45.43710 | -63.88080 | 20725 ft | 331 kts | 69° |
| 2026-05-08 05:45 | 45.51477 | -63.64207 | 20669 ft | 331 kts | 70° |
| 2026-05-08 05:45 | 45.55063 | -63.53148 | 20700 ft | 330 kts | 70° |
| 2026-05-08 05:45 | 45.56069 | -63.50007 | 20686 ft | 330 kts | 70° |
| 2026-05-08 05:46 | 45.59901 | -63.38095 | 20691 ft | 330 kts | 70° |
| 2026-05-08 05:46 | 45.63707 | -63.26206 | 20682 ft | 328 kts | 70° |
| 2026-05-08 05:46 | 45.67502 | -63.14293 | 20681 ft | 328 kts | 71° |
| 2026-05-08 05:46 | 45.71271 | -63.02411 | 20678 ft | 328 kts | 71° |
| 2026-05-08 05:47 | 45.75034 | -62.90494 | 20674 ft | 329 kts | 71° |
| 2026-05-08 05:47 | 45.78789 | -62.78544 | 20679 ft | 329 kts | 72° |
| 2026-05-08 05:47 | 45.82539 | -62.66555 | 20674 ft | 330 kts | 72° |
| 2026-05-08 05:47 | 45.86276 | -62.54550 | 20675 ft | 330 kts | 72° |
| 2026-05-08 05:48 | 45.90013 | -62.42490 | 20680 ft | 331 kts | 72° |
| 2026-05-08 05:48 | 45.93739 | -62.30408 | 20680 ft | 331 kts | 72° |
| 2026-05-08 05:48 | 45.98436 | -62.15099 | 20690 ft | 332 kts | 73° |
| 2026-05-08 05:48 | 46.05843 | -61.90757 | 20690 ft | 333 kts | 73° |
| 2026-05-08 05:49 | 46.13142 | -61.66539 | 20683 ft | 334 kts | 73° |
| 2026-05-08 05:49 | 46.20502 | -61.41885 | 20680 ft | 335 kts | 74° |
| 2026-05-08 05:49 | 46.27844 | -61.17040 | 20663 ft | 336 kts | 75° |
| 2026-05-08 05:49 | 46.35108 | -60.92212 | 20610 ft | 337 kts | 75° |
| 2026-05-08 05:50 | 46.42284 | -60.67434 | 20703 ft | 332 kts | 75° |
| 2026-05-08 05:50 | 46.49372 | -60.42719 | 20660 ft | 330 kts | 76° |
| 2026-05-08 05:50 | 46.56358 | -60.18091 | 20663 ft | 329 kts | 76° |
| 2026-05-08 05:50 | 46.63258 | -59.93541 | 20668 ft | 327 kts | 76° |
| 2026-05-08 05:51 | 46.70067 | -59.69050 | 20668 ft | 326 kts | 76° |
| 2026-05-08 05:51 | 46.76804 | -59.44587 | 20665 ft | 324 kts | 76° |
| 2026-05-08 05:51 | 46.83416 | -59.20325 | 20668 ft | 321 kts | 76° |
| 2026-05-08 05:51 | 46.89951 | -58.96094 | 20670 ft | 318 kts | 77° |
| 2026-05-08 05:52 | 46.96366 | -58.72066 | 20683 ft | 315 kts | 77° |
| 2026-05-08 05:52 | 47.00244 | -58.57102 | 20653 ft | 304 kts | 89° |
| 2026-05-08 05:52 | 47.00467 | -58.54107 | 20691 ft | 294 kts | 96° |
| 2026-05-08 05:52 | 47.00759 | -58.51118 | 20690 ft | 299 kts | 90° |
| 2026-05-08 05:53 | 47.01152 | -58.48125 | 20692 ft | 299 kts | 90° |
| 2026-05-08 05:53 | 47.01506 | -58.45137 | 20692 ft | 297 kts | 92° |
| 2026-05-08 05:53 | 47.01821 | -58.42143 | 20691 ft | 297 kts | 92° |
| 2026-05-08 05:53 | 47.02149 | -58.39152 | 20692 ft | 297 kts | 91° |
| 2026-05-08 05:54 | 47.02487 | -58.36164 | 20690 ft | 297 kts | 91° |
| 2026-05-08 05:54 | 47.03606 | -58.26041 | 20689 ft | 297 kts | 91° |
| 2026-05-08 05:54 | 47.06219 | -58.02111 | 20681 ft | 297 kts | 91° |
| 2026-05-08 05:54 | 47.08736 | -57.78597 | 20681 ft | 294 kts | 91° |
| 2026-05-08 05:55 | 47.11216 | -57.54920 | 20691 ft | 293 kts | 91° |
| 2026-05-08 05:55 | 47.13635 | -57.31344 | 20701 ft | 291 kts | 91° |
| 2026-05-08 05:55 | 47.15993 | -57.07905 | 20716 ft | 289 kts | 91° |
| 2026-05-08 05:55 | 47.18293 | -56.84522 | 20699 ft | 289 kts | 91° |
| 2026-05-08 05:56 | 47.20548 | -56.61116 | 20684 ft | 289 kts | 91° |
| 2026-05-08 05:56 | 47.22747 | -56.37714 | 20660 ft | 291 kts | 91° |
| 2026-05-08 05:56 | 47.24909 | -56.14255 | 20677 ft | 289 kts | 91° |
| 2026-05-08 05:56 | 47.27015 | -55.90841 | 20680 ft | 288 kts | 91° |
| 2026-05-08 05:57 | 47.29071 | -55.67426 | 20686 ft | 288 kts | 91° |
| 2026-05-08 05:57 | 47.31084 | -55.43929 | 20699 ft | 289 kts | 91° |
| 2026-05-08 05:57 | 47.33052 | -55.20408 | 20739 ft | 290 kts | 91° |
| 2026-05-08 05:57 | 47.34984 | -54.96704 | 20769 ft | 292 kts | 91° |
| 2026-05-08 05:58 | 47.36868 | -54.72963 | 20780 ft | 291 kts | 91° |
| 2026-05-08 05:58 | 47.38695 | -54.49318 | 20786 ft | 290 kts | 91° |
| 2026-05-08 05:58 | 47.39634 | -54.36893 | 20776 ft | 290 kts | 91° |
| 2026-05-08 05:58 | 47.39854 | -54.33975 | 20774 ft | 289 kts | 91° |
| 2026-05-08 05:59 | 47.40073 | -54.31059 | 20767 ft | 283 kts | 91° |
| 2026-05-08 05:59 | 47.40289 | -54.28211 | 20761 ft | 273 kts | 91° |
| 2026-05-08 05:59 | 47.40493 | -54.25438 | 20565 ft | 276 kts | 92° |
| 2026-05-08 05:59 | 47.40691 | -54.22568 | 20186 ft | 287 kts | 91° |
| 2026-05-08 06:00 | 47.40914 | -54.19602 | 19822 ft | 291 kts | 91° |
| 2026-05-08 06:00 | 47.41140 | -54.16637 | 19432 ft | 291 kts | 91° |
| 2026-05-08 06:00 | 47.41357 | -54.13669 | 19056 ft | 291 kts | 91° |
| 2026-05-08 06:00 | 47.41573 | -54.10707 | 18686 ft | 290 kts | 90° |
| 2026-05-08 06:01 | 47.41899 | -54.07759 | 18328 ft | 291 kts | 87° |
| 2026-05-08 06:01 | 47.43144 | -53.96162 | 16817 ft | 288 kts | 89° |
| 2026-05-08 06:01 | 47.45580 | -53.72996 | 14167 ft | 283 kts | 90° |
| 2026-05-08 06:01 | 47.47926 | -53.50242 | 11686 ft | 278 kts | 90° |
| 2026-05-08 06:02 | 47.48991 | -53.39714 | 10624 ft | 277 kts | 90° |
| 2026-05-08 06:02 | 47.49274 | -53.36903 | 10353 ft | 276 kts | 90° |
| 2026-05-08 06:02 | 47.49556 | -53.34089 | 10086 ft | 276 kts | 90° |
| 2026-05-08 06:02 | 47.49837 | -53.31301 | 9822 ft | 273 kts | 90° |
| 2026-05-08 06:03 | 47.50114 | -53.28536 | 9536 ft | 271 kts | 90° |
| 2026-05-08 06:03 | 47.50389 | -53.25780 | 9235 ft | 270 kts | 90° |
| 2026-05-08 06:03 | 47.50569 | -53.23966 | 9046 ft | 269 kts | 91° |
| 2026-05-08 06:03 | 47.51517 | -53.14397 | 8079 ft | 267 kts | 91° |
| 2026-05-08 06:04 | 47.53184 | -52.95456 | 6263 ft | 258 kts | 98° |
| 2026-05-08 06:04 | 47.53239 | -52.92793 | 6012 ft | 260 kts | 97° |
| 2026-05-08 06:04 | 47.53367 | -52.90147 | 5984 ft | 254 kts | 95° |
| 2026-05-08 06:04 | 47.53515 | -52.87581 | 5969 ft | 247 kts | 96° |
| 2026-05-08 06:05 | 47.53636 | -52.85082 | 5972 ft | 241 kts | 97° |
| 2026-05-08 06:05 | 47.53750 | -52.82628 | 5974 ft | 237 kts | 97° |
| 2026-05-08 06:05 | 47.53867 | -52.80214 | 5971 ft | 233 kts | 97° |
| 2026-05-08 06:05 | 47.53982 | -52.77834 | 5961 ft | 230 kts | 97° |
| 2026-05-08 06:06 | 47.54097 | -52.75488 | 5968 ft | 228 kts | 97° |
| 2026-05-08 06:06 | 47.54206 | -52.73157 | 5969 ft | 226 kts | 98° |
| 2026-05-08 06:06 | 47.54316 | -52.70852 | 5978 ft | 221 kts | 98° |
| 2026-05-08 06:06 | 47.54418 | -52.68589 | 5967 ft | 220 kts | 98° |
| 2026-05-08 06:07 | 47.54531 | -52.66333 | 5973 ft | 219 kts | 98° |
| 2026-05-08 06:07 | 47.54640 | -52.64088 | 5976 ft | 218 kts | 98° |
| 2026-05-08 06:07 | 47.54741 | -52.61852 | 5972 ft | 218 kts | 98° |
| 2026-05-08 06:07 | 47.54842 | -52.59576 | 5664 ft | 228 kts | 98° |
| 2026-05-08 06:08 | 47.54946 | -52.57225 | 5312 ft | 233 kts | 97° |
| 2026-05-08 06:08 | 47.55067 | -52.54837 | 4990 ft | 233 kts | 97° |
| 2026-05-08 06:08 | 47.55178 | -52.52450 | 4673 ft | 232 kts | 97° |
| 2026-05-08 06:08 | 47.55292 | -52.50064 | 4335 ft | 233 kts | 96° |
| 2026-05-08 06:09 | 47.55667 | -52.47692 | 3928 ft | 250 kts | 71° |
| 2026-05-08 06:09 | 47.56903 | -52.45805 | 3524 ft | 265 kts | 33° |
| 2026-05-08 06:09 | 47.58663 | -52.45130 | 3141 ft | 262 kts | 355° |
| 2026-05-08 06:09 | 47.60342 | -52.45788 | 2995 ft | 238 kts | 330° |
| 2026-05-08 06:10 | 47.61789 | -52.46700 | 2938 ft | 211 kts | 311° |
| 2026-05-08 06:10 | 47.62518 | -52.48253 | 2961 ft | 165 kts | 274° |
| 2026-05-08 06:10 | 47.63102 | -52.49743 | 2966 ft | 170 kts | 290° |
| 2026-05-08 06:10 | 47.63589 | -52.51224 | 2922 ft | 147 kts | 260° |
| 2026-05-08 06:11 | 47.63526 | -52.52615 | 2992 ft | 134 kts | 249° |
| 2026-05-08 06:11 | 47.63472 | -52.54019 | 2987 ft | 137 kts | 252° |
| 2026-05-08 06:11 | 47.63390 | -52.55489 | 2870 ft | 151 kts | 250° |
| 2026-05-08 06:11 | 47.63317 | -52.57069 | 2699 ft | 154 kts | 253° |
| 2026-05-08 06:12 | 47.63264 | -52.58571 | 2471 ft | 140 kts | 250° |
| 2026-05-08 06:12 | 47.63188 | -52.59953 | 2258 ft | 128 kts | 249° |
| 2026-05-08 06:12 | 47.63129 | -52.61178 | 2069 ft | 110 kts | 246° |
| 2026-05-08 06:12 | 47.63071 | -52.62274 | 1929 ft | 105 kts | 244° |
| 2026-05-08 06:13 | 47.63022 | -52.63386 | 1827 ft | 111 kts | 246° |
| 2026-05-08 06:13 | 47.62962 | -52.64547 | 1692 ft | 115 kts | 246° |
| 2026-05-08 06:13 | 47.62908 | -52.65770 | 1529 ft | 122 kts | 247° |
| 2026-05-08 06:13 | 47.62882 | -52.66312 | 1448 ft | 123 kts | 247° |
| 2026-05-08 06:14 | 47.62840 | -52.67050 | 1362 ft | 127 kts | 248° |
| 2026-05-08 06:14 | 47.62799 | -52.68314 | 1399 ft | 116 kts | 250° |
| 2026-05-08 06:15 | 47.62723 | -52.69547 | 1064 ft | 129 kts | 251° |
| 2026-05-08 06:15 | 47.62657 | -52.70891 | 869 ft | 131 kts | 256° |
| 2026-05-08 06:15 | 47.62621 | -52.72206 | 772 ft | 126 kts | 255° |
| 2026-05-08 06:15 | 47.62563 | -52.73465 | 540 ft | 112 kts | 254° |
| 2026-05-08 06:16 | 47.62500 | -52.74468 | 454 ft | 85 kts | 252° |
| 2026-05-08 06:16 | 47.62445 | -52.75234 | 453 ft | 64 kts | 266° |
| 2026-05-08 06:16 | 47.62435 | -52.75680 | 456 ft | 23 kts | 266° |
| 2026-05-08 06:16 | 47.62428 | -52.75810 | 457 ft | 8 kts | 265° |
| 2026-05-08 06:17 | 47.62423 | -52.75892 | 458 ft | 11 kts | 264° |